sensor_id;sensor_type;location;lat;lon;timestamp;P1;durP1;ratioP1;P2;durP2;ratioP2
63005;SDS011;53704;52.532;6.426;2022-11-30T00:02:19;34.70;;;22.50;;
63005;SDS011;53704;52.532;6.426;2022-11-30T00:04:44;35.10;;;22.58;;
63005;SDS011;53704;52.532;6.426;2022-11-30T00:07:10;35.22;;;21.88;;
63005;SDS011;53704;52.532;6.426;2022-11-30T00:09:35;35.83;;;23.08;;
63005;SDS011;53704;52.532;6.426;2022-11-30T00:12:01;27.95;;;21.33;;
63005;SDS011;53704;52.532;6.426;2022-11-30T00:14:26;36.42;;;22.83;;
63005;SDS011;53704;52.532;6.426;2022-11-30T00:16:51;37.28;;;22.15;;
63005;SDS011;53704;52.532;6.426;2022-11-30T00:19:17;30.23;;;22.52;;
63005;SDS011;53704;52.532;6.426;2022-11-30T00:21:42;32.75;;;22.45;;
63005;SDS011;53704;52.532;6.426;2022-11-30T00:24:07;33.47;;;23.13;;
63005;SDS011;53704;52.532;6.426;2022-11-30T00:26:33;38.88;;;23.30;;
63005;SDS011;53704;52.532;6.426;2022-11-30T00:28:58;35.88;;;24.02;;
63005;SDS011;53704;52.532;6.426;2022-11-30T00:31:24;38.63;;;23.88;;
63005;SDS011;53704;52.532;6.426;2022-11-30T00:33:49;40.70;;;24.10;;
63005;SDS011;53704;52.532;6.426;2022-11-30T00:36:15;38.70;;;24.48;;
63005;SDS011;53704;52.532;6.426;2022-11-30T00:38:43;35.88;;;23.52;;
63005;SDS011;53704;52.532;6.426;2022-11-30T00:41:09;33.95;;;23.90;;
63005;SDS011;53704;52.532;6.426;2022-11-30T00:43:35;32.45;;;21.27;;
63005;SDS011;53704;52.532;6.426;2022-11-30T00:46:01;30.58;;;21.60;;
63005;SDS011;53704;52.532;6.426;2022-11-30T00:48:27;37.47;;;22.73;;
63005;SDS011;53704;52.532;6.426;2022-11-30T00:50:52;36.08;;;23.98;;
63005;SDS011;53704;52.532;6.426;2022-11-30T00:53:18;36.15;;;23.95;;
63005;SDS011;53704;52.532;6.426;2022-11-30T00:55:44;38.88;;;22.23;;
63005;SDS011;53704;52.532;6.426;2022-11-30T00:58:11;34.13;;;23.17;;
63005;SDS011;53704;52.532;6.426;2022-11-30T01:00:37;35.28;;;22.83;;
63005;SDS011;53704;52.532;6.426;2022-11-30T01:03:03;32.50;;;22.52;;
63005;SDS011;53704;52.532;6.426;2022-11-30T01:05:29;30.80;;;21.23;;
63005;SDS011;53704;52.532;6.426;2022-11-30T01:07:58;33.67;;;21.90;;
63005;SDS011;53704;52.532;6.426;2022-11-30T01:10:24;30.65;;;21.08;;
63005;SDS011;53704;52.532;6.426;2022-11-30T01:12:49;40.47;;;21.08;;
63005;SDS011;53704;52.532;6.426;2022-11-30T01:15:14;27.50;;;20.58;;
63005;SDS011;53704;52.532;6.426;2022-11-30T01:17:40;31.65;;;19.88;;
63005;SDS011;53704;52.532;6.426;2022-11-30T01:20:05;43.22;;;21.25;;
63005;SDS011;53704;52.532;6.426;2022-11-30T01:22:33;29.58;;;21.50;;
63005;SDS011;53704;52.532;6.426;2022-11-30T01:24:58;35.45;;;22.15;;
63005;SDS011;53704;52.532;6.426;2022-11-30T01:27:24;39.42;;;23.75;;
63005;SDS011;53704;52.532;6.426;2022-11-30T01:29:49;33.97;;;23.95;;
63005;SDS011;53704;52.532;6.426;2022-11-30T01:32:14;35.08;;;24.92;;
63005;SDS011;53704;52.532;6.426;2022-11-30T01:34:40;31.25;;;23.08;;
63005;SDS011;53704;52.532;6.426;2022-11-30T01:37:05;46.85;;;26.70;;
63005;SDS011;53704;52.532;6.426;2022-11-30T01:39:30;40.55;;;26.95;;
63005;SDS011;53704;52.532;6.426;2022-11-30T01:41:56;43.47;;;27.35;;
63005;SDS011;53704;52.532;6.426;2022-11-30T01:47:04;56.65;;;28.85;;
63005;SDS011;53704;52.532;6.426;2022-11-30T01:49:35;37.70;;;24.63;;
63005;SDS011;53704;52.532;6.426;2022-11-30T01:52:08;60.88;;;27.38;;
63005;SDS011;53704;52.532;6.426;2022-11-30T01:57:16;105.70;;;28.55;;
63005;SDS011;53704;52.532;6.426;2022-11-30T01:59:51;40.90;;;24.73;;
63005;SDS011;53704;52.532;6.426;2022-11-30T02:02:19;48.42;;;25.95;;
63005;SDS011;53704;52.532;6.426;2022-11-30T02:04:56;47.78;;;26.20;;
63005;SDS011;53704;52.532;6.426;2022-11-30T02:07:21;57.85;;;27.52;;
63005;SDS011;53704;52.532;6.426;2022-11-30T02:09:47;50.63;;;26.67;;
63005;SDS011;53704;52.532;6.426;2022-11-30T02:12:24;42.53;;;28.08;;
63005;SDS011;53704;52.532;6.426;2022-11-30T02:14:57;43.38;;;29.00;;
63005;SDS011;53704;52.532;6.426;2022-11-30T02:17:47;46.63;;;29.23;;
63005;SDS011;53704;52.532;6.426;2022-11-30T02:23:24;40.15;;;25.33;;
63005;SDS011;53704;52.532;6.426;2022-11-30T02:28:50;46.33;;;26.65;;
63005;SDS011;53704;52.532;6.426;2022-11-30T02:31:27;49.67;;;28.02;;
63005;SDS011;53704;52.532;6.426;2022-11-30T02:34:07;45.17;;;28.25;;
63005;SDS011;53704;52.532;6.426;2022-11-30T02:36:36;56.13;;;30.88;;
63005;SDS011;53704;52.532;6.426;2022-11-30T02:39:03;50.60;;;29.20;;
63005;SDS011;53704;52.532;6.426;2022-11-30T02:41:36;51.67;;;29.58;;
63005;SDS011;53704;52.532;6.426;2022-11-30T02:44:02;57.03;;;31.10;;
63005;SDS011;53704;52.532;6.426;2022-11-30T02:51:38;49.22;;;29.23;;
63005;SDS011;53704;52.532;6.426;2022-11-30T02:54:05;51.38;;;29.05;;
63005;SDS011;53704;52.532;6.426;2022-11-30T02:56:31;47.47;;;27.45;;
63005;SDS011;53704;52.532;6.426;2022-11-30T02:58:57;54.58;;;29.27;;
63005;SDS011;53704;52.532;6.426;2022-11-30T03:01:23;44.75;;;28.33;;
63005;SDS011;53704;52.532;6.426;2022-11-30T03:03:49;49.67;;;30.45;;
63005;SDS011;53704;52.532;6.426;2022-11-30T03:06:14;49.50;;;29.52;;
63005;SDS011;53704;52.532;6.426;2022-11-30T03:08:40;50.42;;;27.27;;
63005;SDS011;53704;52.532;6.426;2022-11-30T03:11:05;48.28;;;26.58;;
63005;SDS011;53704;52.532;6.426;2022-11-30T03:13:31;47.30;;;27.42;;
63005;SDS011;53704;52.532;6.426;2022-11-30T03:15:57;48.80;;;29.50;;
63005;SDS011;53704;52.532;6.426;2022-11-30T03:18:22;53.28;;;29.20;;
63005;SDS011;53704;52.532;6.426;2022-11-30T03:20:47;47.65;;;27.13;;
63005;SDS011;53704;52.532;6.426;2022-11-30T03:23:13;49.20;;;26.17;;
63005;SDS011;53704;52.532;6.426;2022-11-30T03:25:38;45.08;;;26.10;;
63005;SDS011;53704;52.532;6.426;2022-11-30T03:28:04;53.53;;;29.23;;
63005;SDS011;53704;52.532;6.426;2022-11-30T03:30:29;48.63;;;28.15;;
63005;SDS011;53704;52.532;6.426;2022-11-30T03:32:54;44.80;;;26.38;;
63005;SDS011;53704;52.532;6.426;2022-11-30T03:35:20;46.33;;;26.85;;
63005;SDS011;53704;52.532;6.426;2022-11-30T03:37:46;46.22;;;27.05;;
63005;SDS011;53704;52.532;6.426;2022-11-30T03:40:12;45.15;;;26.13;;
63005;SDS011;53704;52.532;6.426;2022-11-30T03:42:37;52.75;;;29.13;;
63005;SDS011;53704;52.532;6.426;2022-11-30T03:45:03;46.58;;;28.20;;
63005;SDS011;53704;52.532;6.426;2022-11-30T03:47:29;49.60;;;29.13;;
63005;SDS011;53704;52.532;6.426;2022-11-30T03:49:54;56.85;;;28.42;;
63005;SDS011;53704;52.532;6.426;2022-11-30T03:52:20;53.50;;;29.20;;
63005;SDS011;53704;52.532;6.426;2022-11-30T03:54:45;53.42;;;29.02;;
63005;SDS011;53704;52.532;6.426;2022-11-30T03:57:11;45.03;;;27.33;;
63005;SDS011;53704;52.532;6.426;2022-11-30T03:59:36;51.00;;;28.10;;
63005;SDS011;53704;52.532;6.426;2022-11-30T04:02:01;54.88;;;28.17;;
63005;SDS011;53704;52.532;6.426;2022-11-30T04:04:27;45.80;;;27.05;;
63005;SDS011;53704;52.532;6.426;2022-11-30T04:06:52;48.92;;;28.48;;
63005;SDS011;53704;52.532;6.426;2022-11-30T04:09:17;56.65;;;30.33;;
63005;SDS011;53704;52.532;6.426;2022-11-30T04:11:43;54.22;;;30.63;;
63005;SDS011;53704;52.532;6.426;2022-11-30T04:14:08;55.10;;;31.42;;
63005;SDS011;53704;52.532;6.426;2022-11-30T04:16:34;50.13;;;29.67;;
63005;SDS011;53704;52.532;6.426;2022-11-30T04:18:59;53.60;;;28.58;;
63005;SDS011;53704;52.532;6.426;2022-11-30T04:21:25;52.65;;;31.27;;
63005;SDS011;53704;52.532;6.426;2022-11-30T04:23:50;57.17;;;30.98;;
63005;SDS011;53704;52.532;6.426;2022-11-30T04:26:16;56.13;;;30.88;;
63005;SDS011;53704;52.532;6.426;2022-11-30T04:28:41;54.55;;;29.75;;
63005;SDS011;53704;52.532;6.426;2022-11-30T04:31:07;51.05;;;28.75;;
63005;SDS011;53704;52.532;6.426;2022-11-30T04:33:33;58.55;;;30.30;;
63005;SDS011;53704;52.532;6.426;2022-11-30T04:36:00;56.83;;;30.55;;
63005;SDS011;53704;52.532;6.426;2022-11-30T04:38:27;53.40;;;29.13;;
63005;SDS011;53704;52.532;6.426;2022-11-30T04:40:53;57.85;;;31.05;;
63005;SDS011;53704;52.532;6.426;2022-11-30T04:43:19;61.40;;;30.17;;
63005;SDS011;53704;52.532;6.426;2022-11-30T04:45:44;55.42;;;29.60;;
63005;SDS011;53704;52.532;6.426;2022-11-30T04:48:10;43.75;;;26.45;;
63005;SDS011;53704;52.532;6.426;2022-11-30T04:50:36;48.72;;;27.45;;
63005;SDS011;53704;52.532;6.426;2022-11-30T04:53:02;44.53;;;26.45;;
63005;SDS011;53704;52.532;6.426;2022-11-30T04:55:27;52.08;;;29.00;;
63005;SDS011;53704;52.532;6.426;2022-11-30T04:57:53;54.63;;;30.05;;
63005;SDS011;53704;52.532;6.426;2022-11-30T05:00:19;52.35;;;30.02;;
63005;SDS011;53704;52.532;6.426;2022-11-30T05:02:45;54.33;;;29.77;;
63005;SDS011;53704;52.532;6.426;2022-11-30T05:05:10;47.47;;;26.92;;
63005;SDS011;53704;52.532;6.426;2022-11-30T05:07:37;47.22;;;29.98;;
63005;SDS011;53704;52.532;6.426;2022-11-30T05:10:03;53.67;;;30.42;;
63005;SDS011;53704;52.532;6.426;2022-11-30T05:12:30;53.80;;;28.55;;
63005;SDS011;53704;52.532;6.426;2022-11-30T05:14:56;55.35;;;29.08;;
63005;SDS011;53704;52.532;6.426;2022-11-30T05:17:21;51.00;;;28.00;;
63005;SDS011;53704;52.532;6.426;2022-11-30T05:19:47;55.75;;;29.40;;
63005;SDS011;53704;52.532;6.426;2022-11-30T05:22:12;53.42;;;29.20;;
63005;SDS011;53704;52.532;6.426;2022-11-30T05:24:37;57.15;;;29.60;;
63005;SDS011;53704;52.532;6.426;2022-11-30T05:27:03;53.63;;;31.50;;
63005;SDS011;53704;52.532;6.426;2022-11-30T05:29:28;49.72;;;29.52;;
63005;SDS011;53704;52.532;6.426;2022-11-30T05:31:54;55.05;;;29.48;;
63005;SDS011;53704;52.532;6.426;2022-11-30T05:34:19;44.90;;;25.52;;
63005;SDS011;53704;52.532;6.426;2022-11-30T05:36:45;45.10;;;26.02;;
63005;SDS011;53704;52.532;6.426;2022-11-30T05:39:10;48.65;;;27.65;;
63005;SDS011;53704;52.532;6.426;2022-11-30T05:41:35;54.90;;;28.70;;
63005;SDS011;53704;52.532;6.426;2022-11-30T05:44:01;52.30;;;27.02;;
63005;SDS011;53704;52.532;6.426;2022-11-30T05:46:27;54.05;;;30.05;;
63005;SDS011;53704;52.532;6.426;2022-11-30T05:48:52;55.67;;;29.63;;
63005;SDS011;53704;52.532;6.426;2022-11-30T05:51:18;53.05;;;28.85;;
63005;SDS011;53704;52.532;6.426;2022-11-30T05:53:44;56.25;;;29.13;;
63005;SDS011;53704;52.532;6.426;2022-11-30T05:56:20;52.65;;;30.42;;
63005;SDS011;53704;52.532;6.426;2022-11-30T05:58:46;52.85;;;30.52;;
63005;SDS011;53704;52.532;6.426;2022-11-30T06:01:19;57.20;;;30.30;;
63005;SDS011;53704;52.532;6.426;2022-11-30T06:03:47;56.42;;;30.35;;
63005;SDS011;53704;52.532;6.426;2022-11-30T06:06:12;59.55;;;31.13;;
63005;SDS011;53704;52.532;6.426;2022-11-30T06:08:38;58.72;;;30.88;;
63005;SDS011;53704;52.532;6.426;2022-11-30T06:11:04;62.28;;;30.65;;
63005;SDS011;53704;52.532;6.426;2022-11-30T06:13:29;61.20;;;31.92;;
63005;SDS011;53704;52.532;6.426;2022-11-30T06:16:03;74.03;;;33.38;;
63005;SDS011;53704;52.532;6.426;2022-11-30T06:18:31;62.47;;;31.67;;
63005;SDS011;53704;52.532;6.426;2022-11-30T06:21:00;62.60;;;31.90;;
63005;SDS011;53704;52.532;6.426;2022-11-30T06:23:29;65.07;;;32.88;;
63005;SDS011;53704;52.532;6.426;2022-11-30T06:25:56;65.03;;;33.03;;
63005;SDS011;53704;52.532;6.426;2022-11-30T06:28:21;68.25;;;34.00;;
63005;SDS011;53704;52.532;6.426;2022-11-30T06:30:47;66.22;;;33.70;;
63005;SDS011;53704;52.532;6.426;2022-11-30T06:33:12;64.18;;;32.28;;
63005;SDS011;53704;52.532;6.426;2022-11-30T06:35:43;71.57;;;33.95;;
63005;SDS011;53704;52.532;6.426;2022-11-30T06:38:09;70.22;;;32.85;;
63005;SDS011;53704;52.532;6.426;2022-11-30T06:40:35;65.47;;;33.40;;
63005;SDS011;53704;52.532;6.426;2022-11-30T06:43:00;70.47;;;32.25;;
63005;SDS011;53704;52.532;6.426;2022-11-30T06:45:26;66.43;;;32.85;;
63005;SDS011;53704;52.532;6.426;2022-11-30T06:47:59;63.58;;;32.10;;
63005;SDS011;53704;52.532;6.426;2022-11-30T06:50:24;65.95;;;31.05;;
63005;SDS011;53704;52.532;6.426;2022-11-30T06:52:50;73.20;;;34.33;;
63005;SDS011;53704;52.532;6.426;2022-11-30T06:55:15;80.18;;;35.88;;
63005;SDS011;53704;52.532;6.426;2022-11-30T06:57:40;64.80;;;34.25;;
63005;SDS011;53704;52.532;6.426;2022-11-30T07:00:06;78.53;;;35.22;;
63005;SDS011;53704;52.532;6.426;2022-11-30T07:02:33;79.22;;;36.45;;
63005;SDS011;53704;52.532;6.426;2022-11-30T07:04:58;83.60;;;36.80;;
63005;SDS011;53704;52.532;6.426;2022-11-30T07:07:24;84.75;;;36.10;;
63005;SDS011;53704;52.532;6.426;2022-11-30T07:09:49;82.93;;;35.38;;
63005;SDS011;53704;52.532;6.426;2022-11-30T07:12:16;74.80;;;35.88;;
63005;SDS011;53704;52.532;6.426;2022-11-30T07:14:41;92.65;;;37.05;;
63005;SDS011;53704;52.532;6.426;2022-11-30T07:17:07;83.80;;;39.17;;
63005;SDS011;53704;52.532;6.426;2022-11-30T07:19:32;71.78;;;36.42;;
63005;SDS011;53704;52.532;6.426;2022-11-30T07:22:00;91.50;;;37.13;;
63005;SDS011;53704;52.532;6.426;2022-11-30T07:24:26;88.68;;;37.65;;
63005;SDS011;53704;52.532;6.426;2022-11-30T07:27:10;82.05;;;36.28;;
63005;SDS011;53704;52.532;6.426;2022-11-30T07:29:35;80.38;;;35.53;;
63005;SDS011;53704;52.532;6.426;2022-11-30T07:32:00;76.28;;;34.13;;
63005;SDS011;53704;52.532;6.426;2022-11-30T07:34:26;85.15;;;36.40;;
63005;SDS011;53704;52.532;6.426;2022-11-30T07:36:51;64.53;;;32.15;;
63005;SDS011;53704;52.532;6.426;2022-11-30T07:39:17;62.55;;;31.20;;
63005;SDS011;53704;52.532;6.426;2022-11-30T07:41:42;72.47;;;33.40;;
63005;SDS011;53704;52.532;6.426;2022-11-30T07:44:08;79.75;;;35.78;;
63005;SDS011;53704;52.532;6.426;2022-11-30T07:46:34;71.32;;;33.80;;
63005;SDS011;53704;52.532;6.426;2022-11-30T07:49:01;67.28;;;34.67;;
63005;SDS011;53704;52.532;6.426;2022-11-30T07:51:28;87.90;;;35.53;;
63005;SDS011;53704;52.532;6.426;2022-11-30T07:53:56;80.80;;;36.78;;
63005;SDS011;53704;52.532;6.426;2022-11-30T07:56:22;68.63;;;33.17;;
63005;SDS011;53704;52.532;6.426;2022-11-30T07:58:49;68.57;;;31.00;;
63005;SDS011;53704;52.532;6.426;2022-11-30T08:01:17;75.20;;;33.85;;
63005;SDS011;53704;52.532;6.426;2022-11-30T08:03:48;73.78;;;32.15;;
63005;SDS011;53704;52.532;6.426;2022-11-30T08:06:16;72.50;;;31.50;;
63005;SDS011;53704;52.532;6.426;2022-11-30T08:08:47;64.68;;;30.60;;
63005;SDS011;53704;52.532;6.426;2022-11-30T08:11:15;56.35;;;30.33;;
63005;SDS011;53704;52.532;6.426;2022-11-30T08:13:46;63.08;;;30.13;;
63005;SDS011;53704;52.532;6.426;2022-11-30T08:16:12;69.95;;;32.13;;
63005;SDS011;53704;52.532;6.426;2022-11-30T08:18:48;72.72;;;32.85;;
63005;SDS011;53704;52.532;6.426;2022-11-30T08:21:14;67.95;;;31.45;;
63005;SDS011;53704;52.532;6.426;2022-11-30T08:23:46;68.63;;;32.22;;
63005;SDS011;53704;52.532;6.426;2022-11-30T08:26:24;67.43;;;31.95;;
63005;SDS011;53704;52.532;6.426;2022-11-30T08:28:51;68.63;;;33.75;;
63005;SDS011;53704;52.532;6.426;2022-11-30T08:31:18;66.18;;;33.30;;
63005;SDS011;53704;52.532;6.426;2022-11-30T08:33:46;70.88;;;32.70;;
63005;SDS011;53704;52.532;6.426;2022-11-30T08:36:13;73.07;;;32.17;;
63005;SDS011;53704;52.532;6.426;2022-11-30T08:38:40;67.22;;;32.17;;
63005;SDS011;53704;52.532;6.426;2022-11-30T08:41:08;60.05;;;31.25;;
63005;SDS011;53704;52.532;6.426;2022-11-30T08:43:34;63.53;;;32.50;;
63005;SDS011;53704;52.532;6.426;2022-11-30T08:46:04;59.45;;;30.92;;
63005;SDS011;53704;52.532;6.426;2022-11-30T08:48:31;67.85;;;30.90;;
63005;SDS011;53704;52.532;6.426;2022-11-30T08:51:09;71.72;;;31.20;;
63005;SDS011;53704;52.532;6.426;2022-11-30T08:53:37;67.80;;;32.38;;
63005;SDS011;53704;52.532;6.426;2022-11-30T08:56:04;63.47;;;30.40;;
63005;SDS011;53704;52.532;6.426;2022-11-30T08:58:36;71.88;;;32.33;;
63005;SDS011;53704;52.532;6.426;2022-11-30T09:01:07;72.65;;;32.85;;
63005;SDS011;53704;52.532;6.426;2022-11-30T09:03:41;66.45;;;32.53;;
63005;SDS011;53704;52.532;6.426;2022-11-30T09:06:12;75.65;;;30.38;;
63005;SDS011;53704;52.532;6.426;2022-11-30T09:08:40;66.78;;;31.02;;
63005;SDS011;53704;52.532;6.426;2022-11-30T09:11:08;69.43;;;28.85;;
63005;SDS011;53704;52.532;6.426;2022-11-30T09:13:35;69.85;;;31.00;;
63005;SDS011;53704;52.532;6.426;2022-11-30T09:16:00;59.08;;;28.33;;
63005;SDS011;53704;52.532;6.426;2022-11-30T09:18:25;66.10;;;29.13;;
63005;SDS011;53704;52.532;6.426;2022-11-30T09:20:51;53.60;;;27.75;;
63005;SDS011;53704;52.532;6.426;2022-11-30T09:23:16;49.20;;;25.90;;
63005;SDS011;53704;52.532;6.426;2022-11-30T09:25:42;62.80;;;27.85;;
63005;SDS011;53704;52.532;6.426;2022-11-30T09:28:07;55.13;;;28.52;;
63005;SDS011;53704;52.532;6.426;2022-11-30T09:30:32;58.17;;;26.55;;
63005;SDS011;53704;52.532;6.426;2022-11-30T09:32:58;57.90;;;25.60;;
63005;SDS011;53704;52.532;6.426;2022-11-30T09:35:24;49.63;;;25.67;;
63005;SDS011;53704;52.532;6.426;2022-11-30T09:37:51;55.90;;;26.45;;
63005;SDS011;53704;52.532;6.426;2022-11-30T09:40:16;51.08;;;25.08;;
63005;SDS011;53704;52.532;6.426;2022-11-30T09:45:27;52.38;;;25.08;;
63005;SDS011;53704;52.532;6.426;2022-11-30T09:50:41;52.28;;;23.50;;
63005;SDS011;53704;52.532;6.426;2022-11-30T09:54:09;44.58;;;22.17;;
63005;SDS011;53704;52.532;6.426;2022-11-30T09:56:27;32.42;;;18.65;;
63005;SDS011;53704;52.532;6.426;2022-11-30T09:59:19;33.72;;;18.00;;
63005;SDS011;53704;52.532;6.426;2022-11-30T10:01:48;34.97;;;18.45;;
63005;SDS011;53704;52.532;6.426;2022-11-30T10:13:21;30.10;;;18.60;;
63005;SDS011;53704;52.532;6.426;2022-11-30T10:28:26;26.13;;;16.45;;
63005;SDS011;53704;52.532;6.426;2022-11-30T10:30:59;25.10;;;16.50;;
63005;SDS011;53704;52.532;6.426;2022-11-30T10:33:26;24.95;;;16.38;;
63005;SDS011;53704;52.532;6.426;2022-11-30T10:35:59;26.50;;;18.23;;
63005;SDS011;53704;52.532;6.426;2022-11-30T10:38:32;25.05;;;17.35;;
63005;SDS011;53704;52.532;6.426;2022-11-30T10:41:16;28.00;;;17.00;;
63005;SDS011;53704;52.532;6.426;2022-11-30T10:43:53;24.20;;;16.20;;
63005;SDS011;53704;52.532;6.426;2022-11-30T10:46:37;26.92;;;17.23;;
63005;SDS011;53704;52.532;6.426;2022-11-30T10:49:13;25.35;;;16.98;;
63005;SDS011;53704;52.532;6.426;2022-11-30T10:51:43;27.13;;;17.77;;
63005;SDS011;53704;52.532;6.426;2022-11-30T10:54:18;28.52;;;17.27;;
63005;SDS011;53704;52.532;6.426;2022-11-30T10:56:46;27.33;;;18.40;;
63005;SDS011;53704;52.532;6.426;2022-11-30T10:59:38;23.98;;;17.95;;
63005;SDS011;53704;52.532;6.426;2022-11-30T11:05:16;33.00;;;19.55;;
63005;SDS011;53704;52.532;6.426;2022-11-30T11:07:47;29.52;;;18.75;;
63005;SDS011;53704;52.532;6.426;2022-11-30T11:10:32;26.17;;;17.35;;
63005;SDS011;53704;52.532;6.426;2022-11-30T11:13:04;35.58;;;20.27;;
63005;SDS011;53704;52.532;6.426;2022-11-30T11:15:31;26.48;;;17.77;;
63005;SDS011;53704;52.532;6.426;2022-11-30T11:20:48;30.77;;;19.08;;
63005;SDS011;53704;52.532;6.426;2022-11-30T11:23:37;24.05;;;17.52;;
63005;SDS011;53704;52.532;6.426;2022-11-30T11:26:05;24.55;;;17.58;;
63005;SDS011;53704;52.532;6.426;2022-11-30T11:28:33;24.75;;;18.67;;
63005;SDS011;53704;52.532;6.426;2022-11-30T11:31:10;24.73;;;17.48;;
63005;SDS011;53704;52.532;6.426;2022-11-30T11:33:48;24.63;;;17.95;;
63005;SDS011;53704;52.532;6.426;2022-11-30T11:36:23;26.38;;;18.20;;
63005;SDS011;53704;52.532;6.426;2022-11-30T11:38:51;24.60;;;17.63;;
63005;SDS011;53704;52.532;6.426;2022-11-30T11:46:35;23.95;;;17.23;;
63005;SDS011;53704;52.532;6.426;2022-11-30T11:53:55;28.83;;;19.65;;
63005;SDS011;53704;52.532;6.426;2022-11-30T12:01:32;25.45;;;19.77;;
63005;SDS011;53704;52.532;6.426;2022-11-30T12:06:50;23.13;;;17.00;;
63005;SDS011;53704;52.532;6.426;2022-11-30T12:09:26;22.90;;;17.40;;
63005;SDS011;53704;52.532;6.426;2022-11-30T12:11:56;22.45;;;17.55;;
63005;SDS011;53704;52.532;6.426;2022-11-30T12:14:23;21.23;;;16.15;;
63005;SDS011;53704;52.532;6.426;2022-11-30T12:16:59;19.08;;;16.50;;
63005;SDS011;53704;52.532;6.426;2022-11-30T12:28:16;22.40;;;17.15;;
63005;SDS011;53704;52.532;6.426;2022-11-30T12:36:18;18.85;;;16.83;;
63005;SDS011;53704;52.532;6.426;2022-11-30T12:38:58;20.90;;;15.77;;
63005;SDS011;53704;52.532;6.426;2022-11-30T12:41:35;24.70;;;17.73;;
63005;SDS011;53704;52.532;6.426;2022-11-30T12:57:37;23.83;;;18.80;;
63005;SDS011;53704;52.532;6.426;2022-11-30T13:00:15;20.52;;;17.55;;
63005;SDS011;53704;52.532;6.426;2022-11-30T13:02:48;22.95;;;18.27;;
63005;SDS011;53704;52.532;6.426;2022-11-30T13:05:44;21.13;;;18.10;;
63005;SDS011;53704;52.532;6.426;2022-11-30T13:08:29;23.38;;;18.48;;
63005;SDS011;53704;52.532;6.426;2022-11-30T13:11:04;24.08;;;19.00;;
63005;SDS011;53704;52.532;6.426;2022-11-30T13:13:35;20.98;;;17.40;;
63005;SDS011;53704;52.532;6.426;2022-11-30T13:16:05;23.58;;;18.92;;
63005;SDS011;53704;52.532;6.426;2022-11-30T13:18:33;20.88;;;18.05;;
63005;SDS011;53704;52.532;6.426;2022-11-30T13:23:53;24.05;;;18.92;;
63005;SDS011;53704;52.532;6.426;2022-11-30T13:36:20;23.38;;;18.52;;
63005;SDS011;53704;52.532;6.426;2022-11-30T13:39:15;25.65;;;18.75;;
63005;SDS011;53704;52.532;6.426;2022-11-30T13:41:49;24.80;;;19.42;;
63005;SDS011;53704;52.532;6.426;2022-11-30T13:46:59;29.50;;;19.50;;
63005;SDS011;53704;52.532;6.426;2022-11-30T13:49:27;27.83;;;19.95;;
63005;SDS011;53704;52.532;6.426;2022-11-30T13:51:55;34.00;;;20.83;;
63005;SDS011;53704;52.532;6.426;2022-11-30T13:57:15;52.72;;;31.02;;
63005;SDS011;53704;52.532;6.426;2022-11-30T13:59:48;42.22;;;24.77;;
63005;SDS011;53704;52.532;6.426;2022-11-30T14:07:43;27.13;;;20.60;;
63005;SDS011;53704;52.532;6.426;2022-11-30T14:10:28;32.50;;;22.20;;
63005;SDS011;53704;52.532;6.426;2022-11-30T14:12:56;36.30;;;23.80;;
63005;SDS011;53704;52.532;6.426;2022-11-30T14:15:26;39.45;;;25.17;;
63005;SDS011;53704;52.532;6.426;2022-11-30T14:20:32;36.65;;;24.95;;
63005;SDS011;53704;52.532;6.426;2022-11-30T14:23:07;36.45;;;23.70;;
63005;SDS011;53704;52.532;6.426;2022-11-30T14:25:38;39.63;;;23.60;;
63005;SDS011;53704;52.532;6.426;2022-11-30T14:28:10;36.38;;;23.60;;
63005;SDS011;53704;52.532;6.426;2022-11-30T14:30:40;41.83;;;24.83;;
63005;SDS011;53704;52.532;6.426;2022-11-30T14:33:12;39.33;;;24.85;;
63005;SDS011;53704;52.532;6.426;2022-11-30T14:35:42;39.33;;;24.73;;
63005;SDS011;53704;52.532;6.426;2022-11-30T14:38:18;40.05;;;25.25;;
63005;SDS011;53704;52.532;6.426;2022-11-30T14:40:57;40.25;;;25.65;;
63005;SDS011;53704;52.532;6.426;2022-11-30T14:43:23;42.40;;;25.63;;
63005;SDS011;53704;52.532;6.426;2022-11-30T14:45:59;45.75;;;27.70;;
63005;SDS011;53704;52.532;6.426;2022-11-30T14:48:27;45.95;;;26.63;;
63005;SDS011;53704;52.532;6.426;2022-11-30T14:50:54;44.92;;;26.88;;
63005;SDS011;53704;52.532;6.426;2022-11-30T14:53:26;43.05;;;27.08;;
63005;SDS011;53704;52.532;6.426;2022-11-30T14:56:35;45.95;;;26.85;;
63005;SDS011;53704;52.532;6.426;2022-11-30T14:59:03;46.63;;;26.75;;
63005;SDS011;53704;52.532;6.426;2022-11-30T15:01:40;38.72;;;25.63;;
63005;SDS011;53704;52.532;6.426;2022-11-30T15:04:10;48.30;;;27.00;;
63005;SDS011;53704;52.532;6.426;2022-11-30T15:06:38;42.55;;;25.73;;
63005;SDS011;53704;52.532;6.426;2022-11-30T15:09:09;47.15;;;29.25;;
63005;SDS011;53704;52.532;6.426;2022-11-30T15:11:40;52.28;;;27.90;;
63005;SDS011;53704;52.532;6.426;2022-11-30T15:14:08;46.63;;;28.63;;
63005;SDS011;53704;52.532;6.426;2022-11-30T15:16:35;49.42;;;27.42;;
63005;SDS011;53704;52.532;6.426;2022-11-30T15:19:14;54.40;;;29.15;;
63005;SDS011;53704;52.532;6.426;2022-11-30T15:21:45;45.33;;;27.75;;
63005;SDS011;53704;52.532;6.426;2022-11-30T15:24:11;53.50;;;29.27;;
63005;SDS011;53704;52.532;6.426;2022-11-30T15:26:37;52.35;;;29.05;;
63005;SDS011;53704;52.532;6.426;2022-11-30T15:29:10;52.47;;;27.63;;
63005;SDS011;53704;52.532;6.426;2022-11-30T15:31:42;57.28;;;29.17;;
63005;SDS011;53704;52.532;6.426;2022-11-30T15:34:43;67.93;;;30.20;;
63005;SDS011;53704;52.532;6.426;2022-11-30T15:37:08;62.85;;;30.48;;
63005;SDS011;53704;52.532;6.426;2022-11-30T15:39:33;75.15;;;32.97;;
63005;SDS011;53704;52.532;6.426;2022-11-30T15:42:00;69.10;;;32.42;;
63005;SDS011;53704;52.532;6.426;2022-11-30T15:44:37;69.43;;;31.25;;
63005;SDS011;53704;52.532;6.426;2022-11-30T15:47:05;71.20;;;31.95;;
63005;SDS011;53704;52.532;6.426;2022-11-30T15:49:51;72.40;;;32.53;;
63005;SDS011;53704;52.532;6.426;2022-11-30T15:52:19;63.78;;;32.97;;
63005;SDS011;53704;52.532;6.426;2022-11-30T15:54:59;65.40;;;31.50;;
63005;SDS011;53704;52.532;6.426;2022-11-30T16:00:25;59.72;;;30.25;;
63005;SDS011;53704;52.532;6.426;2022-11-30T16:03:05;62.30;;;31.27;;
63005;SDS011;53704;52.532;6.426;2022-11-30T16:05:36;61.00;;;31.30;;
63005;SDS011;53704;52.532;6.426;2022-11-30T16:08:02;76.32;;;34.13;;
63005;SDS011;53704;52.532;6.426;2022-11-30T16:10:37;70.78;;;33.45;;
63005;SDS011;53704;52.532;6.426;2022-11-30T16:13:04;84.80;;;34.70;;
63005;SDS011;53704;52.532;6.426;2022-11-30T16:15:30;66.28;;;31.83;;
63005;SDS011;53704;52.532;6.426;2022-11-30T16:18:15;76.65;;;32.83;;
63005;SDS011;53704;52.532;6.426;2022-11-30T16:20:49;66.60;;;32.75;;
63005;SDS011;53704;52.532;6.426;2022-11-30T16:23:17;77.38;;;33.45;;
63005;SDS011;53704;52.532;6.426;2022-11-30T16:25:43;73.88;;;35.33;;
63005;SDS011;53704;52.532;6.426;2022-11-30T16:28:10;74.47;;;35.55;;
63005;SDS011;53704;52.532;6.426;2022-11-30T16:30:37;80.70;;;35.05;;
63005;SDS011;53704;52.532;6.426;2022-11-30T16:33:03;79.88;;;36.83;;
63005;SDS011;53704;52.532;6.426;2022-11-30T16:38:30;75.88;;;37.25;;
63005;SDS011;53704;52.532;6.426;2022-11-30T16:40:57;78.00;;;35.63;;